Time;durP1;ratioP1;P1;durP2;ratioP2;P2;SDS_P1;SDS_P2;PMS_P1;PMS_P2;Temp;Humidity;BMP_temperature;BMP_pressure;BME280_temperature;BME280_humidity;BME280_pressure;Samples;Min_cycle;Max_cycle;Signal;HPM_P1;HPM_P2
2021/07/08 00:01:55;;;;;;;3.63;2.58;;;;;;;;;;6247795;23;20004;-59
2021/07/08 00:04:21;;;;;;;5.78;2.63;;;;;;;;;;6247943;23;20004;-59
2021/07/08 00:06:46;;;;;;;5.32;2.78;;;;;;;;;;6247791;23;19996;-59
2021/07/08 00:09:12;;;;;;;3.28;2.60;;;;;;;;;;6248082;23;20257;-59
2021/07/08 00:11:40;;;;;;;2.83;2.60;;;;;;;;;;6247945;23;19996;-59
2021/07/08 00:14:06;;;;;;;3.95;2.80;;;;;;;;;;6247669;23;20012;-59
2021/07/08 00:16:34;;;;;;;3.95;2.58;;;;;;;;;;6248239;23;20026;-59
2021/07/08 00:18:59;;;;;;;2.88;2.17;;;;;;;;;;6247733;23;20010;-59
2021/07/08 00:21:26;;;;;;;2.90;2.55;;;;;;;;;;6220895;23;20075;-59
2021/07/08 00:23:52;;;;;;;3.40;2.60;;;;;;;;;;6247886;23;20332;-59
2021/07/08 00:26:18;;;;;;;3.70;3.40;;;;;;;;;;6247944;23;19992;-58
2021/07/08 00:28:43;;;;;;;4.35;3.47;;;;;;;;;;6247489;23;20099;-58
2021/07/08 00:31:09;;;;;;;3.08;2.88;;;;;;;;;;6247477;23;20003;-58
2021/07/08 00:33:35;;;;;;;6.10;2.75;;;;;;;;;;6247862;23;20004;-58
2021/07/08 00:36:03;;;;;;;4.38;3.10;;;;;;;;;;6247969;23;19992;-58
2021/07/08 00:38:28;;;;;;;5.85;2.75;;;;;;;;;;6247967;23;20004;-58
2021/07/08 00:40:54;;;;;;;5.20;3.00;;;;;;;;;;6247799;23;19996;-59
2021/07/08 00:43:20;;;;;;;3.08;2.80;;;;;;;;;;6247577;23;20004;-59
2021/07/08 00:45:46;;;;;;;5.03;2.55;;;;;;;;;;6247556;23;20007;-59
2021/07/08 00:48:12;;;;;;;4.30;2.92;;;;;;;;;;6247350;23;20008;-59
2021/07/08 00:50:47;;;;;;;3.72;2.35;;;;;;;;;;6247544;23;20274;-59
2021/07/08 00:53:13;;;;;;;2.95;2.65;;;;;;;;;;6220349;23;20393;-58
2021/07/08 00:55:41;;;;;;;5.65;2.90;;;;;;;;;;6247064;23;20046;-58
2021/07/08 00:58:07;;;;;;;4.80;2.50;;;;;;;;;;6247389;23;20016;-58
2021/07/08 01:00:33;;;;;;;3.00;2.75;;;;;;;;;;6220514;23;20035;-58
2021/07/08 01:02:59;;;;;;;5.13;2.70;;;;;;;;;;6247329;23;20019;-58
2021/07/08 01:05:27;;;;;;;3.03;2.60;;;;;;;;;;6247489;23;20000;-58
2021/07/08 01:07:53;;;;;;;3.67;2.63;;;;;;;;;;6247395;23;20085;-58
2021/07/08 01:10:19;;;;;;;2.78;2.50;;;;;;;;;;6220464;23;20294;-58
2021/07/08 01:12:44;;;;;;;2.90;2.70;;;;;;;;;;6246802;23;20363;-59
2021/07/08 01:15:11;;;;;;;4.72;2.95;;;;;;;;;;6247485;23;20444;-58
2021/07/08 01:17:38;;;;;;;5.13;2.90;;;;;;;;;;6247379;23;20014;-58
2021/07/08 01:20:04;;;;;;;5.45;3.47;;;;;;;;;;6247465;23;20206;-58
2021/07/08 01:22:30;;;;;;;3.55;3.03;;;;;;;;;;6220598;23;20336;-59
2021/07/08 01:24:55;;;;;;;3.70;3.00;;;;;;;;;;6247359;23;19996;-58
2021/07/08 01:27:21;;;;;;;4.45;2.78;;;;;;;;;;6247231;23;20452;-59
2021/07/08 01:29:46;;;;;;;4.72;3.17;;;;;;;;;;6220474;23;20057;-58
2021/07/08 01:32:12;;;;;;;3.40;2.78;;;;;;;;;;6246921;23;20004;-58
2021/07/08 01:34:37;;;;;;;2.88;2.50;;;;;;;;;;6247476;23;20018;-58
2021/07/08 01:37:03;;;;;;;3.53;2.83;;;;;;;;;;6246983;23;20031;-59
2021/07/08 01:39:28;;;;;;;4.85;2.97;;;;;;;;;;6246942;23;20352;-58
2021/07/08 01:41:54;;;;;;;6.18;3.00;;;;;;;;;;6220086;23;20079;-59
2021/07/08 01:44:19;;;;;;;3.45;3.10;;;;;;;;;;6247288;23;20010;-59
2021/07/08 01:46:46;;;;;;;4.22;3.13;;;;;;;;;;6247078;23;20429;-59
2021/07/08 01:49:11;;;;;;;4.35;3.13;;;;;;;;;;6247060;23;20079;-59
2021/07/08 01:51:37;;;;;;;14.32;3.08;;;;;;;;;;6246967;23;20423;-59
2021/07/08 01:54:04;;;;;;;6.10;2.88;;;;;;;;;;6220140;23;20391;-59
2021/07/08 01:56:29;;;;;;;4.38;2.90;;;;;;;;;;6219834;23;20000;-58
2021/07/08 01:58:55;;;;;;;2.97;2.78;;;;;;;;;;6246685;23;20050;-58
2021/07/08 02:01:21;;;;;;;4.50;2.63;;;;;;;;;;6246820;23;20309;-58
2021/07/08 02:03:46;;;;;;;3.97;3.00;;;;;;;;;;6246997;23;19992;-58
2021/07/08 02:06:12;;;;;;;2.67;2.38;;;;;;;;;;6246893;23;20481;-58
2021/07/08 02:08:37;;;;;;;2.90;2.67;;;;;;;;;;6246681;23;20050;-58
2021/07/08 02:11:04;;;;;;;4.63;2.85;;;;;;;;;;6246693;23;20008;-58
2021/07/08 02:13:29;;;;;;;3.00;2.80;;;;;;;;;;6246226;22;20011;-59
2021/07/08 02:15:55;;;;;;;5.72;2.78;;;;;;;;;;6247013;23;20075;-58
2021/07/08 02:18:20;;;;;;;5.28;3.10;;;;;;;;;;6246666;23;20038;-58
2021/07/08 02:20:46;;;;;;;4.47;3.20;;;;;;;;;;6246879;23;20039;-58
2021/07/08 02:23:13;;;;;;;5.20;3.00;;;;;;;;;;6246520;23;20051;-58
2021/07/08 02:25:38;;;;;;;3.38;3.08;;;;;;;;;;6246766;23;20432;-58
2021/07/08 02:28:04;;;;;;;3.65;2.70;;;;;;;;;;6219684;23;20104;-58
2021/07/08 02:30:29;;;;;;;3.92;3.20;;;;;;;;;;6246582;23;20090;-58
2021/07/08 02:32:56;;;;;;;6.55;2.55;;;;;;;;;;6246695;23;20075;-59
2021/07/08 02:35:22;;;;;;;4.00;2.70;;;;;;;;;;6246608;23;20053;-58
2021/07/08 02:37:48;;;;;;;2.97;2.63;;;;;;;;;;6246614;23;20000;-58
2021/07/08 02:40:15;;;;;;;7.25;2.78;;;;;;;;;;6246413;23;20015;-58
2021/07/08 02:42:41;;;;;;;5.90;2.75;;;;;;;;;;6246803;23;20420;-58
2021/07/08 02:45:07;;;;;;;2.95;2.65;;;;;;;;;;6246146;23;20008;-59
2021/07/08 02:47:33;;;;;;;3.13;2.60;;;;;;;;;;6246063;23;19996;-59
2021/07/08 02:49:58;;;;;;;2.88;2.70;;;;;;;;;;6246435;23;20012;-59
2021/07/08 02:52:24;;;;;;;3.50;3.20;;;;;;;;;;6246507;23;20118;-58
2021/07/08 02:54:49;;;;;;;4.75;3.15;;;;;;;;;;6246974;23;20019;-58
2021/07/08 02:57:15;;;;;;;3.70;3.45;;;;;;;;;;6219378;23;20000;-59
2021/07/08 02:59:40;;;;;;;4.68;3.58;;;;;;;;;;6246336;23;20007;-59
2021/07/08 03:02:06;;;;;;;4.95;4.05;;;;;;;;;;6246715;23;20000;-58
2021/07/08 03:04:31;;;;;;;7.43;3.58;;;;;;;;;;6246429;23;20004;-58
2021/07/08 03:06:57;;;;;;;4.38;3.20;;;;;;;;;;6246354;23;19996;-58
2021/07/08 03:09:22;;;;;;;4.78;3.50;;;;;;;;;;6245946;23;20007;-58
2021/07/08 03:11:48;;;;;;;4.00;3.58;;;;;;;;;;6246028;23;20298;-58
2021/07/08 03:14:14;;;;;;;6.63;3.80;;;;;;;;;;6246025;23;20039;-58
2021/07/08 03:16:39;;;;;;;4.50;3.38;;;;;;;;;;6219006;23;20042;-58
2021/07/08 03:19:05;;;;;;;4.07;3.47;;;;;;;;;;6246830;23;20004;-59
2021/07/08 03:21:30;;;;;;;3.70;3.15;;;;;;;;;;6245489;23;19999;-59
2021/07/08 03:23:56;;;;;;;3.28;3.00;;;;;;;;;;6218899;23;20012;-59
2021/07/08 03:26:22;;;;;;;6.55;2.97;;;;;;;;;;6245758;23;19996;-59
2021/07/08 03:28:47;;;;;;;3.22;2.90;;;;;;;;;;6245798;23;20028;-59
2021/07/08 03:31:14;;;;;;;3.03;2.83;;;;;;;;;;6245684;23;19996;-59
2021/07/08 03:33:40;;;;;;;2.70;2.50;;;;;;;;;;6218725;23;20372;-58
2021/07/08 03:36:05;;;;;;;6.28;2.85;;;;;;;;;;6245414;23;19992;-58
2021/07/08 03:38:31;;;;;;;3.08;2.63;;;;;;;;;;6245924;23;20011;-58
2021/07/08 03:40:56;;;;;;;2.88;2.67;;;;;;;;;;6246050;23;20000;-58
2021/07/08 03:43:22;;;;;;;3.35;3.03;;;;;;;;;;6246519;23;20083;-58
2021/07/08 03:45:47;;;;;;;3.95;2.85;;;;;;;;;;6246109;23;20079;-58
2021/07/08 03:48:12;;;;;;;3.00;2.80;;;;;;;;;;6245871;23;20066;-58
2021/07/08 03:50:38;;;;;;;2.92;2.72;;;;;;;;;;6246064;23;20071;-58
2021/07/08 03:53:03;;;;;;;2.63;2.42;;;;;;;;;;6245996;23;20031;-59
2021/07/08 03:55:29;;;;;;;2.70;2.50;;;;;;;;;;6245904;23;20308;-58
2021/07/08 03:57:57;;;;;;;2.78;2.30;;;;;;;;;;6245913;23;20008;-59
2021/07/08 04:00:25;;;;;;;6.28;2.88;;;;;;;;;;6246343;23;20007;-58
2021/07/08 04:02:51;;;;;;;5.32;2.40;;;;;;;;;;6245876;23;20008;-58
2021/07/08 04:05:17;;;;;;;6.15;2.47;;;;;;;;;;6246022;23;20393;-58
2021/07/08 04:07:43;;;;;;;2.65;2.45;;;;;;;;;;6245849;23;20108;-58
2021/07/08 04:10:09;;;;;;;2.95;2.67;;;;;;;;;;6245452;23;20031;-58
2021/07/08 04:12:34;;;;;;;5.53;2.53;;;;;;;;;;6245313;23;20005;-59
2021/07/08 04:15:02;;;;;;;3.67;2.45;;;;;;;;;;6245860;23;20047;-59
2021/07/08 04:17:28;;;;;;;3.17;2.78;;;;;;;;;;6219572;23;20367;-59
2021/07/08 04:19:53;;;;;;;4.65;2.50;;;;;;;;;;6246126;23;20024;-59
2021/07/08 04:22:20;;;;;;;2.85;2.53;;;;;;;;;;6219776;23;20011;-59
2021/07/08 04:24:45;;;;;;;3.10;2.58;;;;;;;;;;6245747;23;19996;-59
2021/07/08 04:27:11;;;;;;;3.20;2.60;;;;;;;;;;6245758;23;20014;-59
2021/07/08 04:29:36;;;;;;;5.10;2.83;;;;;;;;;;6247189;23;19993;-59
2021/07/08 04:32:02;;;;;;;3.08;2.88;;;;;;;;;;6247574;23;20104;-59
2021/07/08 04:34:28;;;;;;;3.75;2.67;;;;;;;;;;6247376;23;19996;-59
2021/07/08 04:36:53;;;;;;;3.75;2.58;;;;;;;;;;6247398;23;20008;-59
2021/07/08 04:39:19;;;;;;;4.22;2.67;;;;;;;;;;6247525;23;20451;-59
2021/07/08 04:41:44;;;;;;;3.15;2.47;;;;;;;;;;6220693;23;20004;-59
2021/07/08 04:44:11;;;;;;;3.22;2.60;;;;;;;;;;6247127;23;19995;-59
2021/07/08 04:46:36;;;;;;;2.63;2.40;;;;;;;;;;6220232;23;20342;-59
2021/07/08 04:49:03;;;;;;;2.33;2.22;;;;;;;;;;6247438;23;19992;-59
2021/07/08 04:51:28;;;;;;;4.15;2.20;;;;;;;;;;6247173;23;20004;-59
2021/07/08 04:53:53;;;;;;;7.25;2.55;;;;;;;;;;6247067;23;20019;-59
2021/07/08 04:56:19;;;;;;;3.38;2.33;;;;;;;;;;6220209;23;20080;-59
2021/07/08 04:58:44;;;;;;;4.85;2.50;;;;;;;;;;6220217;23;20008;-59
2021/07/08 05:01:10;;;;;;;3.65;2.33;;;;;;;;;;6247263;23;20011;-59
2021/07/08 05:03:35;;;;;;;5.20;2.80;;;;;;;;;;6247314;23;20006;-59
2021/07/08 05:06:01;;;;;;;3.80;2.30;;;;;;;;;;6247142;23;20389;-59
2021/07/08 05:08:26;;;;;;;2.63;2.13;;;;;;;;;;6220077;23;20026;-59
2021/07/08 05:10:52;;;;;;;2.88;2.20;;;;;;;;;;6220080;23;20008;-59
2021/07/08 05:13:17;;;;;;;5.95;2.38;;;;;;;;;;6246410;23;20043;-59
2021/07/08 05:15:43;;;;;;;4.30;1.95;;;;;;;;;;6247324;23;20014;-59
2021/07/08 05:18:09;;;;;;;3.13;2.25;;;;;;;;;;6246949;23;20456;-59
2021/07/08 05:20:37;;;;;;;3.13;2.33;;;;;;;;;;6247007;23;20383;-59
2021/07/08 05:23:05;;;;;;;2.80;2.25;;;;;;;;;;6246555;23;19996;-59
2021/07/08 05:25:31;;;;;;;3.15;2.53;;;;;;;;;;6247109;23;20507;-59
2021/07/08 05:27:56;;;;;;;3.30;2.10;;;;;;;;;;6246597;23;20004;-59
2021/07/08 05:30:22;;;;;;;2.03;1.92;;;;;;;;;;6220075;23;20535;-59
2021/07/08 05:32:47;;;;;;;2.80;2.00;;;;;;;;;;6220037;23;19996;-59
2021/07/08 05:35:13;;;;;;;3.47;2.28;;;;;;;;;;6246710;23;20008;-59
2021/07/08 05:37:40;;;;;;;3.38;2.90;;;;;;;;;;6219900;23;20421;-59
2021/07/08 05:40:06;;;;;;;4.53;3.10;;;;;;;;;;6246577;23;20083;-59
2021/07/08 05:42:31;;;;;;;9.98;3.45;;;;;;;;;;6220332;23;20309;-59
2021/07/08 05:44:58;;;;;;;7.80;3.42;;;;;;;;;;6246906;23;20011;-59
2021/07/08 05:47:23;;;;;;;4.70;2.97;;;;;;;;;;6219931;23;20054;-59
2021/07/08 05:49:48;;;;;;;4.78;3.05;;;;;;;;;;6246758;23;20383;-59
2021/07/08 05:52:14;;;;;;;8.00;3.38;;;;;;;;;;6246714;23;20482;-59
2021/07/08 05:54:39;;;;;;;12.23;4.45;;;;;;;;;;6246661;23;20436;-59
2021/07/08 05:57:05;;;;;;;17.25;5.28;;;;;;;;;;6246659;23;19996;-59
2021/07/08 05:59:30;;;;;;;9.43;4.25;;;;;;;;;;6219772;23;20012;-59
2021/07/08 06:01:56;;;;;;;4.82;3.00;;;;;;;;;;6246582;23;19996;-59
2021/07/08 06:04:22;;;;;;;4.63;2.78;;;;;;;;;;6246649;23;20004;-59
2021/07/08 06:06:47;;;;;;;6.60;3.22;;;;;;;;;;6246588;23;19996;-59
2021/07/08 06:09:13;;;;;;;3.38;2.20;;;;;;;;;;6246363;23;20087;-59
2021/07/08 06:11:38;;;;;;;3.88;2.47;;;;;;;;;;6246367;23;20071;-59
2021/07/08 06:14:04;;;;;;;7.88;3.88;;;;;;;;;;6246129;23;20054;-59
2021/07/08 06:16:31;;;;;;;8.90;3.92;;;;;;;;;;6246091;23;20476;-60
2021/07/08 06:18:56;;;;;;;6.18;3.80;;;;;;;;;;6246381;23;20344;-59
2021/07/08 06:21:22;;;;;;;8.18;4.00;;;;;;;;;;6246575;23;19992;-59
2021/07/08 06:23:47;;;;;;;10.38;5.45;;;;;;;;;;6246352;23;20006;-59
2021/07/08 06:26:13;;;;;;;8.88;5.05;;;;;;;;;;6246488;23;20004;-59
2021/07/08 06:28:41;;;;;;;11.32;5.85;;;;;;;;;;6246290;23;20011;-59
2021/07/08 06:31:07;;;;;;;8.05;5.25;;;;;;;;;;6246427;23;19999;-59
2021/07/08 06:33:32;;;;;;;10.63;5.32;;;;;;;;;;6246438;23;20004;-59
2021/07/08 06:35:57;;;;;;;12.13;6.97;;;;;;;;;;6246030;23;20428;-59
2021/07/08 06:38:24;;;;;;;13.65;7.32;;;;;;;;;;6246124;23;20125;-59
2021/07/08 06:40:50;;;;;;;17.75;7.38;;;;;;;;;;6246323;23;20019;-59
2021/07/08 06:43:16;;;;;;;14.40;8.32;;;;;;;;;;6246065;23;20500;-59
2021/07/08 06:45:42;;;;;;;18.70;8.27;;;;;;;;;;6246127;23;20024;-59
2021/07/08 06:48:09;;;;;;;12.80;7.47;;;;;;;;;;6246059;23;20011;-59
2021/07/08 06:50:35;;;;;;;13.93;8.40;;;;;;;;;;6246008;23;20015;-59
2021/07/08 06:53:01;;;;;;;10.05;6.13;;;;;;;;;;6245688;23;20007;-59
2021/07/08 06:55:26;;;;;;;12.25;6.28;;;;;;;;;;6246057;23;19992;-59
2021/07/08 06:57:52;;;;;;;15.45;8.48;;;;;;;;;;6245938;23;20032;-59
2021/07/08 07:00:18;;;;;;;15.35;8.85;;;;;;;;;;6246020;23;20030;-59
2021/07/08 07:02:44;;;;;;;16.60;8.65;;;;;;;;;;6246122;23;20512;-59
2021/07/08 07:05:11;;;;;;;18.08;9.00;;;;;;;;;;6219123;23;20023;-59
2021/07/08 07:07:36;;;;;;;16.92;8.65;;;;;;;;;;6245821;23;20083;-59
2021/07/08 07:10:02;;;;;;;15.43;9.32;;;;;;;;;;6246004;23;20372;-59
2021/07/08 07:12:27;;;;;;;14.68;8.70;;;;;;;;;;6245455;23;20027;-59
2021/07/08 07:14:53;;;;;;;15.95;8.98;;;;;;;;;;6245706;23;20452;-59
2021/07/08 07:17:18;;;;;;;17.85;9.05;;;;;;;;;;6245990;23;20339;-59
2021/07/08 07:19:44;;;;;;;19.77;9.15;;;;;;;;;;6245944;23;20083;-59
2021/07/08 07:22:10;;;;;;;14.68;8.70;;;;;;;;;;6246022;23;20010;-59
2021/07/08 07:24:36;;;;;;;15.70;8.00;;;;;;;;;;6245830;23;20055;-59
2021/07/08 07:27:01;;;;;;;18.13;9.57;;;;;;;;;;6219056;23;20079;-59
2021/07/08 07:29:26;;;;;;;16.85;9.25;;;;;;;;;;6245782;23;20003;-59
2021/07/08 07:31:52;;;;;;;21.60;9.65;;;;;;;;;;6246004;23;20086;-59
2021/07/08 07:34:17;;;;;;;20.25;9.13;;;;;;;;;;6245840;23;19996;-59
2021/07/08 07:36:43;;;;;;;17.83;10.32;;;;;;;;;;6245805;23;20015;-59
2021/07/08 07:39:08;;;;;;;17.42;9.18;;;;;;;;;;6245786;23;19992;-59
2021/07/08 07:41:34;;;;;;;19.08;10.63;;;;;;;;;;6245954;23;20309;-59
2021/07/08 07:44:00;;;;;;;22.55;11.15;;;;;;;;;;6245920;23;20031;-59
2021/07/08 07:46:25;;;;;;;20.83;10.00;;;;;;;;;;6245669;23;20000;-59
2021/07/08 07:48:51;;;;;;;16.95;9.63;;;;;;;;;;6245557;23;20000;-59
2021/07/08 07:51:16;;;;;;;18.83;9.20;;;;;;;;;;6245838;23;20028;-59
2021/07/08 07:53:42;;;;;;;26.73;11.50;;;;;;;;;;6245853;23;20046;-59
2021/07/08 07:56:07;;;;;;;19.67;10.80;;;;;;;;;;6245746;23;20000;-59
2021/07/08 07:58:32;;;;;;;18.13;9.77;;;;;;;;;;6245746;23;20424;-59
2021/07/08 08:01:00;;;;;;;16.75;8.48;;;;;;;;;;6245689;23;20004;-59
2021/07/08 08:03:25;;;;;;;17.38;8.52;;;;;;;;;;6246504;23;20000;-59
2021/07/08 08:08:35;;;;;;;21.67;10.77;;;;;;;;;;6247660;23;20393;-59
2021/07/08 08:11:01;;;;;;;16.33;9.75;;;;;;;;;;6247944;23;20024;-59
2021/07/08 08:13:26;;;;;;;14.63;8.45;;;;;;;;;;6215278;23;20340;-59
2021/07/08 08:15:53;;;;;;;17.13;9.73;;;;;;;;;;6217266;23;20005;-59
2021/07/08 08:18:19;;;;;;;18.77;9.70;;;;;;;;;;6217266;23;20012;-59
2021/07/08 08:20:45;;;;;;;17.85;9.10;;;;;;;;;;6217253;23;20004;-59
2021/07/08 08:23:11;;;;;;;17.33;8.68;;;;;;;;;;6217345;23;20008;-59
2021/07/08 08:25:36;;;;;;;17.05;9.30;;;;;;;;;;6215549;23;20075;-59
2021/07/08 08:28:02;;;;;;;17.67;9.30;;;;;;;;;;6217047;23;20013;-59
2021/07/08 08:30:28;;;;;;;20.67;11.30;;;;;;;;;;6217133;23;19997;-59
2021/07/08 08:32:54;;;;;;;21.48;10.57;;;;;;;;;;6217059;23;20005;-59
2021/07/08 08:35:21;;;;;;;15.00;8.98;;;;;;;;;;6217143;23;20491;-59
2021/07/08 08:37:48;;;;;;;19.33;10.02;;;;;;;;;;6217244;23;20047;-59
2021/07/08 08:40:14;;;;;;;16.23;9.85;;;;;;;;;;6217115;23;20007;-59
2021/07/08 08:42:44;;;;;;;16.35;10.10;;;;;;;;;;6217023;23;20364;-59
2021/07/08 08:45:12;;;;;;;19.40;9.88;;;;;;;;;;6217245;23;20087;-59
2021/07/08 08:47:54;;;;;;;16.35;9.48;;;;;;;;;;6215532;23;20009;-59
2021/07/08 08:50:20;;;;;;;13.88;9.38;;;;;;;;;;6217005;23;20008;-59
2021/07/08 08:52:46;;;;;;;18.95;11.13;;;;;;;;;;6215274;23;19996;-59
2021/07/08 08:55:13;;;;;;;14.70;9.57;;;;;;;;;;6215235;23;20011;-59
2021/07/08 08:57:41;;;;;;;21.63;10.10;;;;;;;;;;6216888;23;20047;-59
2021/07/08 09:00:25;;;;;;;21.83;10.57;;;;;;;;;;6216847;23;20090;-59
2021/07/08 09:03:12;;;;;;;18.00;9.70;;;;;;;;;;6216787;23;20009;-59
2021/07/08 09:05:38;;;;;;;17.15;10.68;;;;;;;;;;6215430;23;20074;-59
2021/07/08 09:08:11;;;;;;;18.40;9.80;;;;;;;;;;6216661;23;20059;-59
2021/07/08 09:10:37;;;;;;;20.85;11.45;;;;;;;;;;6216855;23;20139;-59
2021/07/08 09:13:02;;;;;;;20.98;11.32;;;;;;;;;;6219924;23;20044;-60
2021/07/08 09:15:28;;;;;;;25.10;11.68;;;;;;;;;;6246735;23;20011;-59
2021/07/08 09:17:53;;;;;;;15.30;10.13;;;;;;;;;;6246914;23;20010;-59
2021/07/08 09:20:19;;;;;;;45.00;13.23;;;;;;;;;;6247095;23;20314;-59
2021/07/08 09:22:45;;;;;;;65.85;16.95;;;;;;;;;;6247050;23;20375;-59
2021/07/08 09:25:20;;;;;;;18.15;10.68;;;;;;;;;;6246756;23;20012;-59
2021/07/08 09:27:50;;;;;;;29.10;12.50;;;;;;;;;;6246748;23;20457;-59
2021/07/08 09:30:24;;;;;;;17.88;11.35;;;;;;;;;;6220311;23;20008;-59
2021/07/08 09:32:50;;;;;;;21.52;10.82;;;;;;;;;;6247006;23;20446;-59
2021/07/08 09:35:30;;;;;;;21.08;12.68;;;;;;;;;;6246740;23;20012;-59
2021/07/08 09:38:06;;;;;;;18.67;11.18;;;;;;;;;;6247013;23;20451;-59
2021/07/08 09:40:31;;;;;;;17.40;11.48;;;;;;;;;;6246856;23;20011;-59
2021/07/08 09:42:56;;;;;;;16.70;11.38;;;;;;;;;;6246848;23;19996;-59
2021/07/08 09:45:23;;;;;;;23.13;11.27;;;;;;;;;;6246782;23;20004;-59
2021/07/08 09:47:48;;;;;;;19.80;10.98;;;;;;;;;;6246735;23;20027;-59
2021/07/08 09:50:34;;;;;;;17.73;12.25;;;;;;;;;;6246692;23;20050;-59
2021/07/08 09:53:05;;;;;;;22.10;12.32;;;;;;;;;;6220120;23;20000;-59
2021/07/08 09:55:56;;;;;;;20.13;12.30;;;;;;;;;;6246451;23;20000;-59
2021/07/08 09:58:21;;;;;;;22.48;12.05;;;;;;;;;;6246955;23;20012;-59
2021/07/08 10:00:48;;;;;;;19.48;12.18;;;;;;;;;;6219899;23;20374;-59
2021/07/08 10:03:13;;;;;;;17.60;11.40;;;;;;;;;;6246500;23;20077;-59
2021/07/08 10:05:39;;;;;;;18.20;12.40;;;;;;;;;;6246717;23;20035;-59
2021/07/08 10:08:06;;;;;;;18.80;10.82;;;;;;;;;;6246583;23;20425;-59
2021/07/08 10:10:32;;;;;;;16.60;11.57;;;;;;;;;;6246487;23;20003;-59
2021/07/08 10:12:58;;;;;;;24.67;11.00;;;;;;;;;;6246039;23;20478;-59
2021/07/08 10:15:24;;;;;;;21.60;11.88;;;;;;;;;;6219841;23;20012;-59
2021/07/08 10:17:50;;;;;;;16.85;10.57;;;;;;;;;;6246389;23;20425;-59
2021/07/08 10:20:16;;;;;;;15.05;9.38;;;;;;;;;;6246357;23;19996;-59
2021/07/08 10:22:42;;;;;;;18.50;11.88;;;;;;;;;;6246330;23;20008;-59
2021/07/08 10:25:08;;;;;;;16.55;11.07;;;;;;;;;;6246438;23;20075;-59
2021/07/08 10:27:39;;;;;;;18.17;9.98;;;;;;;;;;6246326;23;20008;-59
2021/07/08 10:30:06;;;;;;;15.85;9.93;;;;;;;;;;6246302;23;20004;-59
2021/07/08 10:32:31;;;;;;;24.52;12.40;;;;;;;;;;6246226;23;19999;-59
2021/07/08 10:34:57;;;;;;;18.98;10.98;;;;;;;;;;6246408;23;20000;-59
2021/07/08 10:37:25;;;;;;;16.88;10.45;;;;;;;;;;6246340;23;20000;-59
2021/07/08 10:39:51;;;;;;;19.60;11.55;;;;;;;;;;6246264;23;20008;-59
2021/07/08 10:42:35;;;;;;;18.00;11.68;;;;;;;;;;6246254;23;20028;-59
2021/07/08 10:45:00;;;;;;;16.58;11.38;;;;;;;;;;6219354;23;20107;-59
2021/07/08 10:47:30;;;;;;;19.40;11.27;;;;;;;;;;6245663;23;20023;-59
2021/07/08 10:49:56;;;;;;;;;;;;;;;;;;6246604;23;20087;-59
2021/07/08 10:52:55;;;;;;;12.70;9.87;;;;;;;;;;6246168;23;19931;-59
2021/07/08 10:55:35;;;;;;;15.17;11.63;;;;;;;;;;6163711;23;20338;-59
2021/07/08 10:58:00;;;;;;;15.03;10.00;;;;;;;;;;6246121;23;20436;-59
2021/07/08 11:00:42;;;;;;;14.68;10.80;;;;;;;;;;6246058;23;20003;-59
2021/07/08 11:03:27;;;;;;;11.68;10.48;;;;;;;;;;6245947;23;20042;-59
2021/07/08 11:05:54;;;;;;;11.70;9.60;;;;;;;;;;6219378;23;20004;-59
2021/07/08 11:08:38;;;;;;;15.90;10.55;;;;;;;;;;6245862;23;19996;-59
2021/07/08 11:11:03;;;;;;;12.85;10.18;;;;;;;;;;6246085;23;20340;-59
2021/07/08 11:13:29;;;;;;;10.48;9.10;;;;;;;;;;6245327;23;20008;-59
2021/07/08 11:15:55;;;;;;;15.57;9.65;;;;;;;;;;6245998;23;20429;-59
2021/07/08 11:18:30;;;;;;;12.95;9.90;;;;;;;;;;6246004;23;20004;-59
2021/07/08 11:20:57;;;;;;;12.38;9.45;;;;;;;;;;6246013;23;20004;-59
2021/07/08 11:23:26;;;;;;;12.90;8.90;;;;;;;;;;6246213;23;20424;-59
2021/07/08 11:25:52;;;;;;;12.30;9.35;;;;;;;;;;6245947;23;20396;-59
2021/07/08 11:28:33;;;;;;;10.35;9.27;;;;;;;;;;6245776;23;20004;-59
2021/07/08 11:31:06;;;;;;;10.15;9.00;;;;;;;;;;6245841;23;20079;-59
2021/07/08 11:33:36;;;;;;;9.77;8.68;;;;;;;;;;6246009;23;20436;-59
2021/07/08 11:36:09;;;;;;;13.23;9.57;;;;;;;;;;6246029;23;20309;-59
2021/07/08 11:38:35;;;;;;;12.70;9.18;;;;;;;;;;6246799;23;20004;-59
2021/07/08 11:41:01;;;;;;;18.08;10.95;;;;;;;;;;6248008;23;19996;-59
2021/07/08 11:43:33;;;;;;;23.35;17.65;;;;;;;;;;6247404;23;20012;-59
2021/07/08 11:46:09;;;;;;;12.60;10.00;;;;;;;;;;6247978;23;20086;-59
2021/07/08 11:48:36;;;;;;;17.95;10.55;;;;;;;;;;6247727;23;20007;-59
2021/07/08 11:51:11;;;;;;;17.02;12.50;;;;;;;;;;6247838;23;20416;-59
2021/07/08 11:53:38;;;;;;;13.95;12.50;;;;;;;;;;6247876;23;20000;-59
2021/07/08 11:56:03;;;;;;;14.48;12.38;;;;;;;;;;6247784;23;20134;-59
2021/07/08 11:58:30;;;;;;;11.90;9.50;;;;;;;;;;6247801;23;20035;-59
2021/07/08 12:00:57;;;;;;;12.15;9.13;;;;;;;;;;6247971;23;20001;-59
2021/07/08 12:03:23;;;;;;;13.02;9.80;;;;;;;;;;6247895;23;20447;-59
2021/07/08 12:05:49;;;;;;;10.23;8.77;;;;;;;;;;6247737;23;20004;-59
2021/07/08 12:08:23;;;;;;;13.93;9.90;;;;;;;;;;6220795;23;20087;-59
2021/07/08 12:10:53;;;;;;;10.90;9.00;;;;;;;;;;6247548;23;20011;-59
2021/07/08 12:13:18;;;;;;;10.25;9.25;;;;;;;;;;6220237;23;20379;-60
2021/07/08 12:15:44;;;;;;;10.48;8.95;;;;;;;;;;6248033;23;20024;-59
2021/07/08 12:18:09;;;;;;;12.43;8.95;;;;;;;;;;6220916;23;20000;-59
2021/07/08 12:20:46;;;;;;;11.88;9.85;;;;;;;;;;6247604;23;20011;-59
2021/07/08 12:23:11;;;;;;;10.32;9.30;;;;;;;;;;6247693;23;20004;-59
2021/07/08 12:25:37;;;;;;;12.80;9.23;;;;;;;;;;6247611;23;20003;-59
2021/07/08 12:28:02;;;;;;;8.95;8.02;;;;;;;;;;6247497;23;20008;-59
2021/07/08 12:30:29;;;;;;;12.70;8.25;;;;;;;;;;6247492;23;19996;-59
2021/07/08 12:33:11;;;;;;;9.43;8.02;;;;;;;;;;6247377;23;20000;-59
2021/07/08 12:39:22;;;;;;;10.35;9.07;;;;;;;;;;6189208;23;20012;-59
2021/07/08 12:41:48;;;;;;;8.90;7.97;;;;;;;;;;6214478;23;20013;-59
2021/07/08 12:44:15;;;;;;;9.57;8.30;;;;;;;;;;6213838;23;20012;-59
2021/07/08 12:46:41;;;;;;;8.63;7.65;;;;;;;;;;6189354;23;20379;-59
2021/07/08 12:49:07;;;;;;;8.05;6.45;;;;;;;;;;6213826;23;20036;-59
2021/07/08 12:51:36;;;;;;;12.98;9.30;;;;;;;;;;6189233;23;20004;-59
2021/07/08 12:54:02;;;;;;;12.30;7.73;;;;;;;;;;6214633;23;20063;-59
2021/07/08 12:56:28;;;;;;;8.52;7.43;;;;;;;;;;6214173;23;20412;-59
2021/07/08 12:59:00;;;;;;;19.17;8.23;;;;;;;;;;6214426;23;20080;-59
2021/07/08 13:01:28;;;;;;;8.20;7.40;;;;;;;;;;6214406;23;20016;-59
2021/07/08 13:03:54;;;;;;;8.68;7.85;;;;;;;;;;6213845;23;20537;-59
2021/07/08 13:06:22;;;;;;;8.45;7.70;;;;;;;;;;6214438;23;20020;-59
2021/07/08 13:08:48;;;;;;;8.60;7.78;;;;;;;;;;6214127;23;20000;-60
2021/07/08 13:11:14;;;;;;;7.28;6.68;;;;;;;;;;6214506;23;20009;-59
2021/07/08 13:13:40;;;;;;;10.40;7.20;;;;;;;;;;6213793;23;20119;-59
2021/07/08 13:16:19;;;;;;;8.25;7.28;;;;;;;;;;6201620;23;20427;-59
2021/07/08 13:18:45;;;;;;;9.52;7.88;;;;;;;;;;6247245;23;20012;-59
2021/07/08 13:21:16;;;;;;;9.50;8.50;;;;;;;;;;6247423;23;20049;-59
2021/07/08 13:23:42;;;;;;;12.23;10.95;;;;;;;;;;6247067;23;20083;-59
2021/07/08 13:26:12;;;;;;;9.07;7.85;;;;;;;;;;6247173;23;19996;-63
2021/07/08 13:28:40;;;;;;;9.73;8.05;;;;;;;;;;6246867;23;20054;-59
2021/07/08 13:31:11;;;;;;;9.18;8.38;;;;;;;;;;6246673;23;19996;-60
2021/07/08 13:33:45;;;;;;;8.65;7.88;;;;;;;;;;6220882;23;20016;-59
2021/07/08 13:36:13;;;;;;;9.43;8.52;;;;;;;;;;6247783;23;20058;-59
2021/07/08 13:38:38;;;;;;;8.55;7.68;;;;;;;;;;6247517;23;20045;-59
2021/07/08 13:41:07;;;;;;;12.32;8.88;;;;;;;;;;6247263;23;20090;-59
2021/07/08 13:43:39;;;;;;;8.73;7.32;;;;;;;;;;6247299;23;20038;-59
2021/07/08 13:46:09;;;;;;;8.15;7.35;;;;;;;;;;6247049;23;20058;-59
2021/07/08 13:48:35;;;;;;;10.65;8.15;;;;;;;;;;6246609;23;20012;-59
2021/07/08 13:51:00;;;;;;;8.70;7.15;;;;;;;;;;6247133;23;20022;-59
2021/07/08 13:53:27;;;;;;;8.95;8.05;;;;;;;;;;6247307;23;20000;-59
2021/07/08 13:55:52;;;;;;;10.60;8.57;;;;;;;;;;6247108;23;19996;-59
2021/07/08 13:58:18;;;;;;;8.50;7.38;;;;;;;;;;6246522;23;20314;-59
2021/07/08 14:00:44;;;;;;;7.30;6.70;;;;;;;;;;6219503;23;20011;-59
2021/07/08 14:03:09;;;;;;;9.35;6.57;;;;;;;;;;6246613;23;20084;-59
2021/07/08 14:05:34;;;;;;;7.82;7.22;;;;;;;;;;6246799;23;20371;-59
2021/07/08 14:08:00;;;;;;;8.02;6.60;;;;;;;;;;6247005;23;20008;-59
2021/07/08 14:10:26;;;;;;;6.95;6.28;;;;;;;;;;6246514;23;20000;-59
2021/07/08 14:12:51;;;;;;;8.80;7.75;;;;;;;;;;6246321;22;20000;-59
2021/07/08 14:15:17;;;;;;;9.18;7.57;;;;;;;;;;6246636;23;20007;-59
2021/07/08 14:17:42;;;;;;;8.45;6.78;;;;;;;;;;6219750;23;20000;-59
2021/07/08 14:20:08;;;;;;;8.82;7.20;;;;;;;;;;6246354;23;20008;-59
2021/07/08 14:22:33;;;;;;;6.30;5.80;;;;;;;;;;6246464;23;20390;-59
2021/07/08 14:24:58;;;;;;;9.10;6.63;;;;;;;;;;6246264;23;20011;-59
2021/07/08 14:27:24;;;;;;;7.97;7.18;;;;;;;;;;6245800;23;20091;-59
2021/07/08 14:29:49;;;;;;;7.13;6.43;;;;;;;;;;6246221;23;20016;-59
2021/07/08 14:32:15;;;;;;;11.35;7.43;;;;;;;;;;6246090;23;20420;-59
2021/07/08 14:34:40;;;;;;;7.05;6.43;;;;;;;;;;6246025;23;20007;-59
2021/07/08 14:37:05;;;;;;;7.65;6.90;;;;;;;;;;6219628;23;20054;-59
2021/07/08 14:39:31;;;;;;;6.88;6.38;;;;;;;;;;6246223;23;20008;-59
2021/07/08 14:42:01;;;;;;;8.23;6.40;;;;;;;;;;6219411;23;19996;-59